createdAt,value
2019-03-15T00:00:10.877Z,91.95
2019-03-15T00:01:10.840Z,91.8
2019-03-15T00:02:10.831Z,91.91
2019-03-15T00:03:10.853Z,92.02
2019-03-15T00:04:10.920Z,91.85
2019-03-15T00:05:10.821Z,92.31
2019-03-15T00:06:10.855Z,92.25
2019-03-15T00:07:10.823Z,92.03
2019-03-15T00:08:10.827Z,92.11
2019-03-15T00:09:10.840Z,92.02
2019-03-15T00:10:10.842Z,92.04
2019-03-15T00:11:11.672Z,92.04
2019-03-15T00:12:10.859Z,91.97
2019-03-15T00:13:10.874Z,91.68
2019-03-15T00:14:10.855Z,91.55
2019-03-15T00:15:10.815Z,91.54
2019-03-15T00:16:10.837Z,91.54
2019-03-15T00:17:10.853Z,91.52
2019-03-15T00:18:10.915Z,91.52
2019-03-15T00:19:12.560Z,91.5
2019-03-15T00:20:10.850Z,91.57
2019-03-15T00:21:10.787Z,91.51
2019-03-15T00:22:10.811Z,91.33
2019-03-15T00:23:10.800Z,91.28
2019-03-15T00:24:10.810Z,91.42
2019-03-15T00:25:11.600Z,91.25
2019-03-15T00:26:10.813Z,91.18
2019-03-15T00:27:10.904Z,91.09
2019-03-15T00:28:10.804Z,91.01
2019-03-15T00:29:10.831Z,91.06
2019-03-15T00:30:10.834Z,91
2019-03-15T00:31:10.848Z,90.84
2019-03-15T00:32:10.884Z,90.88
2019-03-15T00:33:10.798Z,90.85
2019-03-15T00:34:10.775Z,90.7
2019-03-15T00:35:10.809Z,90.73
2019-03-15T00:36:10.810Z,90.67
2019-03-15T00:37:10.780Z,90.69
2019-03-15T00:38:10.794Z,90.52
2019-03-15T00:39:10.780Z,90.5
2019-03-15T00:40:10.889Z,90.64
2019-03-15T00:41:11.082Z,90.49
2019-03-15T00:42:10.880Z,90.5
2019-03-15T00:43:10.778Z,90.52
2019-03-15T00:44:10.768Z,90.37
2019-03-15T00:45:10.773Z,90.19
2019-03-15T00:46:10.804Z,89.99
2019-03-15T00:47:10.771Z,90.05
2019-03-15T00:48:11.974Z,89.99
2019-03-15T00:49:10.912Z,90.04
2019-03-15T00:50:10.802Z,90.09
2019-03-15T00:51:10.757Z,90.01
2019-03-15T00:52:10.833Z,90.05
2019-03-15T00:53:10.736Z,89.98
2019-03-15T00:54:10.773Z,89.92
2019-03-15T00:55:10.772Z,89.93
2019-03-15T00:56:11.524Z,90.04
2019-03-15T00:57:10.765Z,89.92
2019-03-15T00:58:10.781Z,89.87
2019-03-15T00:59:10.758Z,89.7
2019-03-15T01:00:10.738Z,89.78
2019-03-15T01:01:10.752Z,89.83
2019-03-15T01:02:11.410Z,89.7
2019-03-15T01:03:10.749Z,89.75
2019-03-15T01:04:10.723Z,89.67
2019-03-15T01:05:10.820Z,89.66
2019-03-15T01:06:10.750Z,89.61
2019-03-15T01:07:10.725Z,89.62
2019-03-15T01:08:11.456Z,89.64
2019-03-15T01:09:10.754Z,89.44
2019-03-15T01:10:10.730Z,89.59
2019-03-15T01:11:10.725Z,89.58
2019-03-15T01:12:10.781Z,89.55
2019-03-15T01:13:10.857Z,89.63
2019-03-15T01:14:10.724Z,89.58
2019-03-15T01:15:11.179Z,89.56
2019-03-15T01:16:10.840Z,89.48
2019-03-15T01:17:10.786Z,89.32
2019-03-15T01:18:10.759Z,89.33
2019-03-15T01:19:10.792Z,89.59
2019-03-15T01:20:10.735Z,89.46
2019-03-15T01:21:10.851Z,89.4
2019-03-15T01:22:10.771Z,89.46
2019-03-15T01:23:10.720Z,89.65
2019-03-15T01:24:10.789Z,89.5
2019-03-15T01:25:10.710Z,89.66
2019-03-15T01:26:10.772Z,89.64
2019-03-15T01:27:10.748Z,89.65
2019-03-15T01:28:10.727Z,89.62
2019-03-15T01:29:10.886Z,89.63
2019-03-15T01:30:10.849Z,89.62
2019-03-15T01:31:10.714Z,89.58
2019-03-15T01:32:10.749Z,89.59
2019-03-15T01:33:10.700Z,89.64
2019-03-15T01:34:10.717Z,89.61
2019-03-15T01:35:10.702Z,89.67
2019-03-15T01:36:10.713Z,89.53
2019-03-15T01:37:10.737Z,89.68
2019-03-15T01:38:10.917Z,89.75
2019-03-15T01:39:11.284Z,89.82
2019-03-15T01:40:10.790Z,89.75
2019-03-15T01:41:10.680Z,89.59
2019-03-15T01:42:10.689Z,89.75
2019-03-15T01:43:10.698Z,89.67
2019-03-15T01:44:10.700Z,89.49
2019-03-15T01:45:10.739Z,89.68
2019-03-15T01:46:10.829Z,89.76
2019-03-15T01:47:10.678Z,89.71
2019-03-15T01:48:10.677Z,89.81
2019-03-15T01:49:10.863Z,89.77
2019-03-15T01:50:10.701Z,89.79
2019-03-15T01:51:10.733Z,89.75
2019-03-15T01:52:10.689Z,89.8
2019-03-15T01:53:10.725Z,89.94
2019-03-15T01:54:10.676Z,89.97
2019-03-15T01:55:10.664Z,89.79
2019-03-15T01:56:10.692Z,90.11
2019-03-15T01:57:10.726Z,90.18
2019-03-15T01:58:10.651Z,90.22
2019-03-15T01:59:10.958Z,90.08
2019-03-15T02:00:10.735Z,90.21
2019-03-15T02:01:10.689Z,90.24
2019-03-15T02:02:10.647Z,90.36
2019-03-15T02:03:10.653Z,90.36
2019-03-15T02:04:10.686Z,90.19
2019-03-15T02:05:10.645Z,90.3
2019-03-15T02:06:10.675Z,90.4
2019-03-15T02:07:10.680Z,90.37
2019-03-15T02:08:10.668Z,90.58
2019-03-15T02:09:10.687Z,90.59
2019-03-15T02:10:11.069Z,90.39
2019-03-15T02:11:10.642Z,90.44
2019-03-15T02:12:10.645Z,90.46
2019-03-15T02:13:10.674Z,90.49
2019-03-15T02:14:10.651Z,90.28
2019-03-15T02:15:10.631Z,90.54
2019-03-15T02:16:10.640Z,90.6
2019-03-15T02:17:10.634Z,90.55
2019-03-15T02:18:10.635Z,90.61
2019-03-15T02:19:10.654Z,90.61
2019-03-15T02:20:11.199Z,90.64
2019-03-15T02:21:11.007Z,90.71
2019-03-15T02:22:10.699Z,90.71
2019-03-15T02:23:10.619Z,90.65
2019-03-15T02:24:10.637Z,90.8
2019-03-15T02:25:10.629Z,90.81
2019-03-15T02:26:10.651Z,90.69
2019-03-15T02:27:10.760Z,90.74
2019-03-15T02:28:10.692Z,90.76
2019-03-15T02:29:10.622Z,90.46
2019-03-15T02:30:10.648Z,90.64
2019-03-15T02:31:10.663Z,90.68
2019-03-15T02:32:10.635Z,90.74
2019-03-15T02:33:10.610Z,90.82
2019-03-15T02:34:10.609Z,90.95
2019-03-15T02:35:10.697Z,90.98
2019-03-15T02:36:10.640Z,90.98
2019-03-15T02:37:10.611Z,90.77
2019-03-15T02:38:10.631Z,90.78
2019-03-15T02:39:10.634Z,90.81
2019-03-15T02:40:10.629Z,91.07
2019-03-15T02:41:10.598Z,91.01
2019-03-15T02:42:10.708Z,91.09
2019-03-15T02:43:10.566Z,90.94
2019-03-15T02:44:10.668Z,90.96
2019-03-15T02:45:10.640Z,91.18
2019-03-15T02:46:10.638Z,91.16
2019-03-15T02:47:10.663Z,91.11
2019-03-15T02:48:10.621Z,91.14
2019-03-15T02:49:10.606Z,91.12
2019-03-15T02:50:10.582Z,91.12
2019-03-15T02:51:10.772Z,91.11
2019-03-15T02:52:10.592Z,91.15
2019-03-15T02:53:10.620Z,91.04
2019-03-15T02:54:10.586Z,91.13
2019-03-15T02:55:10.558Z,91.28
2019-03-15T02:56:10.590Z,91.32
2019-03-15T02:57:10.594Z,91.29
2019-03-15T02:58:10.626Z,91.38
2019-03-15T02:59:10.574Z,91.2
2019-03-15T03:00:10.562Z,91.28
2019-03-15T03:01:10.571Z,91.67
2019-03-15T03:02:10.618Z,91.43
2019-03-15T03:03:10.590Z,91.54
2019-03-15T03:04:10.980Z,91.81
2019-03-15T03:05:10.741Z,91.59
2019-03-15T03:06:10.629Z,91.92
2019-03-15T03:07:10.589Z,91.88
2019-03-15T03:08:10.560Z,92.01
2019-03-15T03:09:10.595Z,91.79
2019-03-15T03:10:10.590Z,91.74
2019-03-15T03:11:10.572Z,91.71
2019-03-15T03:12:10.568Z,91.63
2019-03-15T03:13:10.802Z,91.63
2019-03-15T03:14:10.563Z,91.89
2019-03-15T03:15:10.560Z,91.79
2019-03-15T03:16:10.639Z,91.82
2019-03-15T03:17:10.546Z,91.74
2019-03-15T03:18:10.541Z,91.88
2019-03-15T03:19:10.597Z,91.71
2019-03-15T03:20:10.562Z,91.54
2019-03-15T03:21:10.547Z,91.88
2019-03-15T03:22:10.593Z,91.67
2019-03-15T03:23:10.555Z,91.82
2019-03-15T03:24:10.611Z,91.78
2019-03-15T03:25:10.633Z,91.74
2019-03-15T03:26:10.661Z,91.92
2019-03-15T03:27:10.538Z,91.84
2019-03-15T03:28:10.555Z,91.83
2019-03-15T03:29:10.972Z,91.79
2019-03-15T03:30:10.997Z,91.62
2019-03-15T03:31:10.556Z,91.91
2019-03-15T03:32:11.075Z,91.96
2019-03-15T03:33:12.217Z,91.91
2019-03-15T03:34:12.544Z,91.75
2019-03-15T03:35:10.886Z,91.86
2019-03-15T03:36:10.576Z,91.78
2019-03-15T03:37:10.518Z,91.74
2019-03-15T03:38:10.760Z,91.7
2019-03-15T03:39:10.516Z,91.78
2019-03-15T03:40:10.538Z,91.71
2019-03-15T03:41:10.847Z,91.65
2019-03-15T03:42:10.543Z,91.51
2019-03-15T03:43:10.521Z,91.41
2019-03-15T03:44:10.578Z,91.54
2019-03-15T03:45:10.491Z,91.4
2019-03-15T03:46:10.530Z,91.39
2019-03-15T03:47:10.513Z,91.53
2019-03-15T03:48:10.512Z,91.33
2019-03-15T03:49:10.517Z,91.47
2019-03-15T03:50:10.515Z,91.34
2019-03-15T03:51:10.538Z,91.45
2019-03-15T03:52:10.693Z,91.49
2019-03-15T03:53:10.576Z,91.7
2019-03-15T03:54:10.545Z,92.1
2019-03-15T03:55:10.518Z,92
2019-03-15T03:56:10.496Z,92.06
2019-03-15T03:57:10.701Z,92.31
2019-03-15T03:58:10.504Z,92.55
2019-03-15T03:59:10.687Z,92.23
2019-03-15T04:00:10.507Z,92.37
2019-03-15T04:01:10.550Z,92.23
2019-03-15T04:02:10.523Z,92.01
2019-03-15T04:03:10.489Z,92.15
2019-03-15T04:04:10.495Z,92.1
2019-03-15T04:05:10.493Z,91.95
2019-03-15T04:06:10.621Z,91.82
2019-03-15T04:07:10.535Z,91.82
2019-03-15T04:08:10.575Z,91.82
2019-03-15T04:09:10.499Z,91.71
2019-03-15T04:10:10.497Z,91.63
2019-03-15T04:11:10.528Z,91.45
2019-03-15T04:12:10.785Z,91.47
2019-03-15T04:13:10.481Z,91.35
2019-03-15T04:14:10.494Z,91.25
2019-03-15T04:15:10.456Z,91.26
2019-03-15T04:16:10.464Z,91.4
2019-03-15T04:17:10.465Z,91.19
2019-03-15T04:18:10.464Z,91.24
2019-03-15T04:19:10.536Z,91.23
2019-03-15T04:20:10.448Z,90.9
2019-03-15T04:21:10.483Z,90.91
2019-03-15T04:22:10.474Z,90.89
2019-03-15T04:23:10.567Z,90.9
2019-03-15T04:24:10.536Z,90.86
2019-03-15T04:25:10.496Z,90.9
2019-03-15T04:26:10.475Z,90.62
2019-03-15T04:27:10.454Z,90.68
2019-03-15T04:28:10.440Z,90.6
2019-03-15T04:29:10.470Z,90.59
2019-03-15T04:30:10.432Z,90.32
2019-03-15T04:31:10.437Z,90.15
2019-03-15T04:32:10.465Z,90.05
2019-03-15T04:33:10.473Z,90.12
2019-03-15T04:34:10.477Z,90.21
2019-03-15T04:35:10.453Z,90.08
2019-03-15T04:36:10.488Z,90.09
2019-03-15T04:37:10.442Z,90.01
2019-03-15T04:38:10.452Z,89.96
2019-03-15T04:39:13.579Z,89.97
2019-03-15T04:40:10.486Z,90.01
2019-03-15T04:41:10.456Z,90.03
2019-03-15T04:42:10.446Z,89.81
2019-03-15T04:43:10.431Z,89.82
2019-03-15T04:44:10.443Z,89.86
2019-03-15T04:45:10.435Z,89.9
2019-03-15T04:46:10.433Z,89.79
2019-03-15T04:47:10.426Z,89.89
2019-03-15T04:48:10.437Z,89.94
2019-03-15T04:49:10.410Z,89.93
2019-03-15T04:50:10.430Z,89.9
2019-03-15T04:51:10.493Z,89.89
2019-03-15T04:52:10.445Z,89.54
2019-03-15T04:53:10.414Z,89.72
2019-03-15T04:54:10.404Z,89.98
2019-03-15T04:55:10.487Z,89.55
2019-03-15T04:56:10.411Z,89.86
2019-03-15T04:57:10.418Z,90.11
2019-03-15T04:58:10.811Z,90.24
2019-03-15T04:59:10.439Z,90.09
2019-03-15T05:00:10.401Z,89.89
2019-03-15T05:01:10.398Z,89.64
2019-03-15T05:02:10.402Z,89.76
2019-03-15T05:03:10.402Z,90.25
2019-03-15T05:04:10.396Z,90.19
2019-03-15T05:05:10.414Z,90.25
2019-03-15T05:06:10.413Z,90.29
2019-03-15T05:07:10.389Z,90.2
2019-03-15T05:08:10.394Z,90.25
2019-03-15T05:09:10.417Z,90.42
2019-03-15T05:10:10.425Z,90.43
2019-03-15T05:11:10.386Z,90.47
2019-03-15T05:12:10.479Z,90.44
2019-03-15T05:13:10.469Z,90.41
2019-03-15T05:14:10.386Z,90.82
2019-03-15T05:15:10.405Z,90.78
2019-03-15T05:16:10.394Z,91.15
2019-03-15T05:17:10.399Z,91.06
2019-03-15T05:18:10.399Z,91.15
2019-03-15T05:19:10.651Z,91.44
2019-03-15T05:20:10.442Z,91.81
2019-03-15T05:21:10.389Z,91.61
2019-03-15T05:22:10.405Z,91.66
2019-03-15T05:23:10.413Z,91.93
2019-03-15T05:24:10.449Z,92.3
2019-03-15T05:25:10.362Z,92.22
2019-03-15T05:26:10.382Z,92.06
2019-03-15T05:27:10.417Z,92.17
2019-03-15T05:28:10.453Z,92.31
2019-03-15T05:29:10.361Z,92.2
2019-03-15T05:30:10.390Z,92.38
2019-03-15T05:31:10.421Z,92.38
2019-03-15T05:32:10.464Z,92.43
2019-03-15T05:33:10.345Z,92.49
2019-03-15T05:34:10.405Z,92.94
2019-03-15T05:35:10.405Z,92.8
2019-03-15T05:36:10.365Z,92.83
2019-03-15T05:37:10.341Z,93.12
2019-03-15T05:38:10.373Z,93.57
2019-03-15T05:39:10.379Z,93.4
2019-03-15T05:40:10.383Z,93.43
2019-03-15T05:41:10.360Z,93.35
2019-03-15T05:42:10.547Z,93.6
2019-03-15T05:43:10.346Z,93.8
2019-03-15T05:44:10.383Z,93.61
2019-03-15T05:45:10.348Z,94.04
2019-03-15T05:46:10.343Z,94.15
2019-03-15T05:47:10.368Z,94.16
2019-03-15T05:48:10.364Z,94.18
2019-03-15T05:49:10.361Z,94.51
2019-03-15T05:50:10.334Z,94.75
2019-03-15T05:51:10.325Z,94.86
2019-03-15T05:52:10.366Z,94.65
2019-03-15T05:53:10.335Z,94.58
2019-03-15T05:54:10.531Z,94.75
2019-03-15T05:55:10.324Z,95.09
2019-03-15T05:56:10.332Z,95.08
2019-03-15T05:57:10.322Z,95.17
2019-03-15T05:58:10.331Z,94.96
2019-03-15T05:59:10.339Z,95.35
2019-03-15T06:00:10.325Z,95.26
2019-03-15T06:01:10.395Z,95.39
2019-03-15T06:02:10.361Z,95.22
2019-03-15T06:03:12.402Z,95.32
2019-03-15T06:04:10.469Z,95.39
2019-03-15T06:05:10.337Z,95.67
2019-03-15T06:06:10.313Z,95.48
2019-03-15T06:07:10.295Z,95.92
2019-03-15T06:08:10.314Z,95.57
2019-03-15T06:09:10.305Z,95.79
2019-03-15T06:10:10.353Z,95.92
2019-03-15T06:11:10.323Z,96.14
2019-03-15T06:12:10.310Z,96.04
2019-03-15T06:13:10.385Z,96.14
2019-03-15T06:14:10.314Z,96.31
2019-03-15T06:15:10.422Z,96.17
2019-03-15T06:16:10.308Z,95.94
2019-03-15T06:17:10.302Z,96.37
2019-03-15T06:18:10.302Z,96.28
2019-03-15T06:19:10.343Z,96.25
2019-03-15T06:20:10.296Z,96.06
2019-03-15T06:21:10.450Z,96.52
2019-03-15T06:22:10.312Z,96.49
2019-03-15T06:23:10.300Z,96.52
2019-03-15T06:24:10.287Z,96.37
2019-03-15T06:25:10.432Z,96.57
2019-03-15T06:26:10.504Z,96.52
2019-03-15T06:27:10.325Z,96.39
2019-03-15T06:28:10.349Z,96.52
2019-03-15T06:29:10.268Z,96.8
2019-03-15T06:30:10.274Z,96.55
2019-03-15T06:31:10.296Z,96.32
2019-03-15T06:32:10.292Z,96.75
2019-03-15T06:33:10.278Z,96.84
2019-03-15T06:34:10.271Z,96.88
2019-03-15T06:35:10.324Z,96.9
2019-03-15T06:36:10.285Z,96.62
2019-03-15T06:37:10.312Z,96.51
2019-03-15T06:38:10.268Z,96.45
2019-03-15T06:39:10.297Z,96.55
2019-03-15T06:40:13.230Z,96.73
2019-03-15T06:41:10.274Z,97.05
2019-03-15T06:42:10.287Z,97.26
2019-03-15T06:43:12.976Z,96.79
2019-03-15T06:44:10.243Z,96.8
2019-03-15T06:45:10.266Z,96.98
2019-03-15T06:46:10.292Z,96.78
2019-03-15T06:47:10.516Z,96.82
2019-03-15T06:48:10.602Z,96.96
2019-03-15T06:49:10.241Z,97.07
2019-03-15T06:50:10.314Z,97.15
2019-03-15T06:51:10.247Z,96.93
2019-03-15T06:52:10.258Z,96.93
2019-03-15T06:53:10.301Z,97.01
2019-03-15T06:54:11.558Z,97.19
2019-03-15T06:55:10.225Z,97.07
2019-03-15T06:56:10.229Z,97.17
2019-03-15T06:57:10.240Z,97.04
2019-03-15T06:58:10.261Z,97.08
2019-03-15T06:59:10.267Z,97.19
2019-03-15T07:00:10.242Z,97.51
2019-03-15T07:01:10.503Z,97.28
2019-03-15T07:02:10.255Z,97.06
2019-03-15T07:03:10.227Z,96.95
2019-03-15T07:04:10.239Z,96.58
2019-03-15T07:05:11.968Z,96.8
2019-03-15T07:06:10.532Z,96.82
2019-03-15T07:07:10.491Z,96.64
2019-03-15T07:08:10.240Z,96.92
2019-03-15T07:09:10.223Z,96.69
2019-03-15T07:10:10.505Z,97.14
2019-03-15T07:11:10.242Z,97.02
2019-03-15T07:12:10.394Z,96.82
2019-03-15T07:13:10.249Z,96.9
2019-03-15T07:14:10.212Z,96.92
2019-03-15T07:15:10.319Z,97.13
2019-03-15T07:16:10.209Z,97.05
2019-03-15T07:17:10.218Z,96.78
2019-03-15T07:18:10.191Z,96.79
2019-03-15T07:19:10.217Z,96.85
2019-03-15T07:20:10.233Z,96.94
2019-03-15T07:21:10.200Z,97.06
2019-03-15T07:22:10.193Z,96.67
2019-03-15T07:23:10.210Z,96.89
2019-03-15T07:24:10.204Z,96.67
2019-03-15T07:25:10.199Z,96.37
2019-03-15T07:26:10.192Z,96.46
2019-03-15T07:27:13.061Z,96.7
2019-03-15T07:28:10.187Z,96.76
2019-03-15T07:29:10.192Z,97.22
2019-03-15T07:30:10.224Z,97.09
2019-03-15T07:31:10.286Z,97.03
2019-03-15T07:32:11.430Z,96.84
2019-03-15T07:33:10.290Z,96.94
2019-03-15T07:34:13.412Z,96.96
2019-03-15T07:35:10.235Z,97.13
2019-03-15T07:36:10.182Z,97.09
2019-03-15T07:37:10.220Z,97.12
2019-03-15T07:38:10.170Z,97.03
2019-03-15T07:39:12.604Z,96.97
2019-03-15T07:40:10.245Z,96.84
2019-03-15T07:41:10.211Z,96.76
2019-03-15T07:42:10.264Z,97
2019-03-15T07:43:10.202Z,97.1
2019-03-15T07:44:10.233Z,97.07
2019-03-15T07:45:10.261Z,96.83
2019-03-15T07:46:10.178Z,96.76
2019-03-15T07:47:10.158Z,97.11
2019-03-15T07:48:21.613Z,96.9
2019-03-15T07:49:10.177Z,96.91
2019-03-15T07:50:10.175Z,96.94
2019-03-15T07:51:10.176Z,96.79
2019-03-15T07:52:10.213Z,97.23
2019-03-15T07:53:10.312Z,97.16
2019-03-15T07:54:10.192Z,97.02
2019-03-15T07:55:10.330Z,97.16
2019-03-15T07:56:10.194Z,97.05
2019-03-15T07:57:10.172Z,96.79
2019-03-15T07:58:10.173Z,97.04
2019-03-15T07:59:10.189Z,97.05
2019-03-15T08:00:10.144Z,96.9
2019-03-15T08:01:10.162Z,97.09
2019-03-15T08:02:10.158Z,97.05
2019-03-15T08:03:10.236Z,97.27
2019-03-15T08:04:16.524Z,97.15
2019-03-15T08:05:10.126Z,97
2019-03-15T08:06:10.158Z,97.34
2019-03-15T08:07:10.129Z,97.26
2019-03-15T08:08:10.213Z,97.09
2019-03-15T08:09:10.125Z,97.24
2019-03-15T08:10:10.111Z,97.26
2019-03-15T08:11:10.190Z,97.2
2019-03-15T08:12:10.210Z,97.07
2019-03-15T08:13:10.151Z,97.17
2019-03-15T08:14:10.106Z,97.03
2019-03-15T08:15:10.161Z,96.96
2019-03-15T08:16:10.205Z,96.96
2019-03-15T08:17:10.369Z,97.34
2019-03-15T08:18:10.151Z,97.64
2019-03-15T08:19:10.135Z,97.62
2019-03-15T08:20:10.154Z,97.39
2019-03-15T08:21:10.124Z,97.33
2019-03-15T08:22:10.191Z,97.48
2019-03-15T08:23:10.123Z,97.37
2019-03-15T08:24:10.132Z,97.22
2019-03-15T08:25:10.105Z,97.25
2019-03-15T08:26:10.158Z,97.36
2019-03-15T08:27:10.121Z,97
2019-03-15T08:28:10.145Z,97.1
2019-03-15T08:29:10.240Z,97.19
2019-03-15T08:30:10.102Z,97.33
2019-03-15T08:31:10.166Z,97.37
2019-03-15T08:32:10.137Z,97.31
2019-03-15T08:33:11.125Z,97.36
2019-03-15T08:34:10.103Z,97.59
2019-03-15T08:35:10.133Z,97.26
2019-03-15T08:36:10.121Z,97.43
2019-03-15T08:37:10.118Z,97.55
2019-03-15T08:38:10.334Z,97.33
2019-03-15T08:39:10.178Z,97.16
2019-03-15T08:40:10.094Z,97.41
2019-03-15T08:41:10.102Z,97.32
2019-03-15T08:42:10.200Z,97.55
2019-03-15T08:43:10.096Z,97.48
2019-03-15T08:44:10.205Z,97.37
2019-03-15T08:45:10.088Z,97.34
2019-03-15T08:46:10.075Z,97.56
2019-03-15T08:47:10.133Z,97.49
2019-03-15T08:48:10.085Z,97.6
2019-03-15T08:49:10.246Z,97.36
2019-03-15T08:50:10.130Z,97.47
2019-03-15T08:51:10.731Z,97.51
2019-03-15T08:52:10.109Z,97.35
2019-03-15T08:53:10.068Z,97.79
2019-03-15T08:54:10.071Z,97.44
2019-03-15T08:55:10.068Z,97.5
2019-03-15T08:56:10.062Z,97.6
2019-03-15T08:57:10.108Z,97.2
2019-03-15T08:58:14.491Z,97.25
2019-03-15T08:59:10.078Z,97.45
2019-03-15T09:00:10.062Z,97.55
2019-03-15T09:01:11.013Z,97.28
2019-03-15T09:02:10.183Z,97.65
2019-03-15T09:03:10.077Z,97.32
2019-03-15T09:04:10.080Z,97.42
2019-03-15T09:05:10.089Z,97.45
2019-03-15T09:06:10.194Z,97.37
2019-03-15T09:07:10.105Z,97.41
2019-03-15T09:08:10.146Z,97.4
2019-03-15T09:09:10.125Z,97.53
2019-03-15T09:10:21.654Z,97.48
2019-03-15T09:11:10.055Z,97.27
2019-03-15T09:12:10.063Z,97.47
2019-03-15T09:13:10.119Z,97.63
2019-03-15T09:14:10.130Z,97.73
2019-03-15T09:15:10.172Z,97.53
2019-03-15T09:16:10.055Z,97.51
2019-03-15T09:17:10.060Z,97.61
2019-03-15T09:18:10.332Z,97.49
2019-03-15T09:19:10.068Z,97.55
2019-03-15T09:20:10.055Z,97.53
2019-03-15T09:21:10.029Z,97.46
2019-03-15T09:22:10.131Z,97.5
2019-03-15T09:23:10.109Z,97.6
2019-03-15T09:24:10.073Z,97.89
2019-03-15T09:25:18.930Z,97.77
2019-03-15T09:26:10.493Z,97.88
2019-03-15T09:27:10.588Z,97.36
2019-03-15T09:28:10.077Z,97.53
2019-03-15T09:29:10.040Z,97.68
2019-03-15T09:30:22.461Z,97.46
2019-03-15T09:31:10.021Z,97.57
2019-03-15T09:32:10.073Z,97.77
2019-03-15T09:33:10.096Z,97.75
2019-03-15T09:34:10.045Z,97.76
2019-03-15T09:35:10.013Z,97.82
2019-03-15T09:36:10.023Z,97.95
2019-03-15T09:37:10.063Z,97.95
2019-03-15T09:38:10.691Z,97.74
2019-03-15T09:39:10.032Z,97.79
2019-03-15T09:40:09.999Z,97.92
2019-03-15T09:41:10.003Z,97.89
2019-03-15T09:42:10.012Z,97.93
2019-03-15T09:43:10.015Z,98.01
2019-03-15T09:44:11.852Z,98.03
2019-03-15T09:45:10.282Z,97.83
2019-03-15T09:46:09.988Z,97.91
2019-03-15T09:47:09.987Z,98.33
2019-03-15T09:48:10.120Z,98.21
2019-03-15T09:49:10.145Z,98.24
2019-03-15T09:50:20.965Z,98.04
2019-03-15T09:51:09.984Z,98.48
2019-03-15T09:52:09.993Z,98.32
2019-03-15T09:53:09.990Z,98.5
2019-03-15T09:54:09.984Z,98.37
2019-03-15T09:55:09.986Z,98.1
2019-03-15T09:56:09.980Z,98.14
2019-03-15T09:57:09.985Z,98.2
2019-03-15T09:58:09.989Z,98.33
2019-03-15T09:59:10.003Z,98.46
2019-03-15T10:00:10.276Z,98.44
2019-03-15T10:01:10.231Z,98.48
2019-03-15T10:02:09.989Z,98.43
2019-03-15T10:03:21.415Z,98.55
2019-03-15T10:04:09.999Z,98.53
2019-03-15T10:05:11.601Z,98.41
2019-03-15T10:06:15.473Z,98.38
2019-03-15T10:07:10.145Z,98.44
2019-03-15T10:08:09.958Z,98.5
2019-03-15T10:09:09.990Z,98.8
2019-03-15T10:10:13.644Z,98.76
2019-03-15T10:11:09.958Z,98.76
2019-03-15T10:12:09.967Z,98.73
2019-03-15T10:13:10.111Z,98.81
2019-03-15T10:14:10.023Z,98.68
2019-03-15T10:15:10.177Z,99
2019-03-15T10:16:09.962Z,98.7
2019-03-15T10:17:09.952Z,98.74
2019-03-15T10:18:09.961Z,98.67
2019-03-15T10:19:09.959Z,98.76
2019-03-15T10:20:12.448Z,98.83
2019-03-15T10:21:10.013Z,98.74
2019-03-15T10:22:09.956Z,98.77
2019-03-15T10:23:09.973Z,98.75
2019-03-15T10:24:09.944Z,99.2
2019-03-15T10:25:09.935Z,99.13
2019-03-15T10:26:10.010Z,99.13
2019-03-15T10:27:09.941Z,99.07
2019-03-15T10:28:10.250Z,99.02
2019-03-15T10:29:14.995Z,98.88
2019-03-15T10:30:09.954Z,98.86
2019-03-15T10:31:09.940Z,99.03
2019-03-15T10:32:10.076Z,99.05
2019-03-15T10:33:09.963Z,99.41
2019-03-15T10:34:10.194Z,99.15
2019-03-15T10:35:09.940Z,99.26
2019-03-15T10:36:09.943Z,99.13
2019-03-15T10:37:09.946Z,98.99
2019-03-15T10:38:09.921Z,99.11
2019-03-15T10:39:09.942Z,99.1
2019-03-15T10:40:09.930Z,99.05
2019-03-15T10:41:09.921Z,99.08
2019-03-15T10:42:09.947Z,99.01
2019-03-15T10:43:09.947Z,99.21
2019-03-15T10:44:09.911Z,99.38
2019-03-15T10:45:09.917Z,99.41
2019-03-15T10:46:09.905Z,99.39
2019-03-15T10:47:09.902Z,99.68
2019-03-15T10:48:09.934Z,99.5
2019-03-15T10:49:09.958Z,99.53
2019-03-15T10:50:09.976Z,99.39
2019-03-15T10:51:10.303Z,99.33
2019-03-15T10:52:09.917Z,99.3
2019-03-15T10:53:09.918Z,99.49
2019-03-15T10:54:09.905Z,99.79
2019-03-15T10:55:10.074Z,99.43
2019-03-15T10:56:09.953Z,99.2
2019-03-15T10:57:09.912Z,99.74
2019-03-15T10:58:09.951Z,99.48
2019-03-15T10:59:09.972Z,99.56
2019-03-15T11:00:09.904Z,99.79
2019-03-15T11:01:09.940Z,99.55
2019-03-15T11:02:09.942Z,99.63
2019-03-15T11:03:12.930Z,99.68
2019-03-15T11:04:09.929Z,99.59
2019-03-15T11:05:09.923Z,99.53
2019-03-15T11:06:09.895Z,99.67
2019-03-15T11:07:09.896Z,99.76
2019-03-15T11:08:09.878Z,99.93
2019-03-15T11:09:10.249Z,99.93
2019-03-15T11:10:09.894Z,99.69
2019-03-15T11:11:09.932Z,99.69
2019-03-15T11:12:09.892Z,99.63
2019-03-15T11:13:09.927Z,99.68
2019-03-15T11:14:09.898Z,99.73
2019-03-15T11:15:09.909Z,99.79
2019-03-15T11:16:09.902Z,99.93
2019-03-15T11:17:09.924Z,99.74
2019-03-15T11:18:09.886Z,99.9
2019-03-15T11:19:09.890Z,99.76
2019-03-15T11:20:09.884Z,99.82
2019-03-15T11:21:09.879Z,99.6
2019-03-15T11:22:09.927Z,99.76
2019-03-15T11:23:09.942Z,100
2019-03-15T11:24:09.905Z,99.98
2019-03-15T11:25:09.875Z,99.93
2019-03-15T11:26:13.736Z,100
2019-03-15T11:27:09.874Z,99.91
2019-03-15T11:28:09.881Z,99.99
2019-03-15T11:29:09.856Z,100
2019-03-15T11:30:09.916Z,100
2019-03-15T11:31:09.974Z,100
2019-03-15T11:32:09.879Z,100
2019-03-15T11:33:09.908Z,100
2019-03-15T11:34:09.862Z,99.9
2019-03-15T11:35:09.923Z,99.77
2019-03-15T11:36:09.873Z,99.96
2019-03-15T11:37:09.858Z,100
2019-03-15T11:38:09.851Z,99.78
2019-03-15T11:39:09.870Z,99.8
2019-03-15T11:40:09.849Z,99.71
2019-03-15T11:41:09.866Z,99.97
2019-03-15T11:42:09.868Z,99.93
2019-03-15T11:43:09.838Z,99.67
2019-03-15T11:44:09.843Z,99.72
2019-03-15T11:45:09.838Z,99.56
2019-03-15T11:46:09.851Z,99.68
2019-03-15T11:47:09.957Z,99.48
2019-03-15T11:48:09.877Z,99.58
2019-03-15T11:49:09.969Z,99.84
2019-03-15T11:50:09.839Z,99.82
2019-03-15T11:51:09.909Z,99.91
2019-03-15T11:52:09.842Z,99.87
2019-03-15T11:53:09.836Z,99.89
2019-03-15T11:54:09.853Z,100
2019-03-15T11:55:09.859Z,99.85
2019-03-15T11:56:09.858Z,99.67
2019-03-15T11:57:10.142Z,99.73
2019-03-15T11:58:10.230Z,99.63
2019-03-15T11:59:09.831Z,99.63
2019-03-15T12:00:09.827Z,99.7
2019-03-15T12:01:09.826Z,99.75
2019-03-15T12:02:10.805Z,99.63
2019-03-15T12:03:09.880Z,99.52
2019-03-15T12:04:09.828Z,99.51
2019-03-15T12:05:09.819Z,99.83
2019-03-15T12:06:09.833Z,99.76
2019-03-15T12:07:10.502Z,99.59
2019-03-15T12:08:09.820Z,99.62
2019-03-15T12:09:09.856Z,99.98
2019-03-15T12:10:09.813Z,99.68
2019-03-15T12:11:09.822Z,99.4
2019-03-15T12:12:09.806Z,99.67
2019-03-15T12:13:09.827Z,99.42
2019-03-15T12:14:09.789Z,99.61
2019-03-15T12:15:09.804Z,99.26
2019-03-15T12:16:09.813Z,99.24
2019-03-15T12:17:09.827Z,99.2
2019-03-15T12:18:09.794Z,99.36
2019-03-15T12:19:09.953Z,99.21
2019-03-15T12:20:11.198Z,99.21
2019-03-15T12:21:09.979Z,99.11
2019-03-15T12:22:09.798Z,99.07
2019-03-15T12:23:09.783Z,99.33
2019-03-15T12:24:09.779Z,99.22
2019-03-15T12:25:09.835Z,99.2
2019-03-15T12:26:10.163Z,99.16
2019-03-15T12:27:09.769Z,98.86
2019-03-15T12:28:09.774Z,99.13
2019-03-15T12:29:09.819Z,99.04
2019-03-15T12:30:09.809Z,99.05
2019-03-15T12:31:09.786Z,98.68
2019-03-15T12:32:09.778Z,99.03
2019-03-15T12:33:09.794Z,99.19
2019-03-15T12:34:09.785Z,99.12
2019-03-15T12:35:09.775Z,98.98
2019-03-15T12:36:09.782Z,98.79
2019-03-15T12:37:09.833Z,98.96
2019-03-15T12:38:09.775Z,98.69
2019-03-15T12:39:09.797Z,98.57
2019-03-15T12:40:09.784Z,98.64
2019-03-15T12:41:09.814Z,98.52
2019-03-15T12:42:09.805Z,98.56
2019-03-15T12:43:09.769Z,98.54
2019-03-15T12:44:10.603Z,98.66
2019-03-15T12:45:09.775Z,98.71
2019-03-15T12:46:09.763Z,98.73
2019-03-15T12:47:09.802Z,98.7
2019-03-15T12:48:09.778Z,98.52
2019-03-15T12:49:09.752Z,98.5
2019-03-15T12:50:09.759Z,98.57
2019-03-15T12:51:09.744Z,98.27
2019-03-15T12:52:09.758Z,98.28
2019-03-15T12:53:09.793Z,98.08
2019-03-15T12:54:09.745Z,98.2
2019-03-15T12:55:09.742Z,98.16
2019-03-15T12:56:11.022Z,97.99